createdAt,value
2022-10-28T00:01:17.078Z,4.10
2022-10-28T00:03:46.994Z,3.53
2022-10-28T00:06:17.782Z,3.20
2022-10-28T00:08:47.268Z,3.63
2022-10-28T00:11:17.636Z,4.05
2022-10-28T00:13:46.651Z,3.35
2022-10-28T00:16:18.554Z,4.00
2022-10-28T00:18:47.959Z,3.70
2022-10-28T00:21:17.567Z,3.22
2022-10-28T00:23:46.337Z,3.15
2022-10-28T00:26:16.818Z,3.50
2022-10-28T00:28:46.820Z,3.60
2022-10-28T00:31:18.331Z,3.63
2022-10-28T00:33:47.439Z,4.15
2022-10-28T00:36:17.389Z,3.58
2022-10-28T00:38:47.095Z,3.47
2022-10-28T00:41:17.668Z,3.70
2022-10-28T00:43:48.243Z,5.35
2022-10-28T00:46:27.166Z,4.00
2022-10-28T00:48:59.801Z,3.22
2022-10-28T00:51:29.559Z,3.22
2022-10-28T00:53:58.240Z,3.15
2022-10-28T00:56:30.359Z,3.50
2022-10-28T00:59:02.284Z,4.32
2022-10-28T01:01:32.239Z,3.13
2022-10-28T01:04:01.779Z,4.07
2022-10-28T01:06:30.779Z,3.90
2022-10-28T01:09:00.168Z,3.83
2022-10-28T01:11:52.379Z,3.35
2022-10-28T01:14:31.091Z,3.83
2022-10-28T01:17:17.055Z,3.53
2022-10-28T01:20:15.275Z,3.63
2022-10-28T01:22:52.675Z,3.20
2022-10-28T01:25:46.975Z,3.55
2022-10-28T01:28:31.426Z,3.58
2022-10-28T01:31:20.686Z,3.35
2022-10-28T01:33:53.743Z,4.28
2022-10-28T01:36:35.200Z,3.38
2022-10-28T01:39:12.696Z,3.67
2022-10-28T01:41:50.132Z,3.53
2022-10-28T01:44:25.410Z,4.00
2022-10-28T01:47:01.295Z,3.67
2022-10-28T01:49:39.287Z,3.70
2022-10-28T01:52:12.218Z,3.53
2022-10-28T01:54:42.968Z,3.65
2022-10-28T01:57:15.906Z,4.07
2022-10-28T01:59:46.499Z,3.40
2022-10-28T02:02:18.686Z,3.60
2022-10-28T02:04:47.044Z,4.30
2022-10-28T02:07:16.116Z,3.38
2022-10-28T02:10:02.607Z,3.55
2022-10-28T02:12:32.624Z,4.10
2022-10-28T02:15:15.619Z,3.55
2022-10-28T02:17:57.027Z,3.58
2022-10-28T02:20:35.878Z,3.40
2022-10-28T02:23:16.795Z,4.07
2022-10-28T02:25:52.204Z,4.05
2022-10-28T02:28:25.542Z,4.03
2022-10-28T02:30:58.084Z,4.00
2022-10-28T02:33:32.303Z,3.90
2022-10-28T02:36:04.854Z,4.28
2022-10-28T02:38:35.948Z,3.95
2022-10-28T02:41:09.250Z,3.20
2022-10-28T02:43:39.217Z,4.80
2022-10-28T02:46:09.550Z,3.83
2022-10-28T02:48:43.458Z,3.78
2022-10-28T02:51:15.046Z,3.28
2022-10-28T02:53:51.484Z,3.90
2022-10-28T02:56:21.764Z,3.85
2022-10-28T02:58:50.132Z,3.33
2022-10-28T03:01:18.532Z,3.53
2022-10-28T03:03:48.087Z,3.58
2022-10-28T03:06:16.305Z,3.45
2022-10-28T03:08:44.539Z,3.03
2022-10-28T03:11:13.115Z,3.88
2022-10-28T03:13:41.249Z,3.78
2022-10-28T03:16:09.587Z,3.70
2022-10-28T03:18:37.734Z,3.88
2022-10-28T03:21:07.344Z,4.15
2022-10-28T03:23:35.902Z,3.67
2022-10-28T03:26:04.012Z,4.10
2022-10-28T03:28:32.094Z,4.13
2022-10-28T03:31:00.239Z,4.25
2022-10-28T03:33:28.565Z,3.63
2022-10-28T03:35:56.856Z,3.88
2022-10-28T03:38:26.784Z,3.60
2022-10-28T03:40:54.919Z,4.00
2022-10-28T03:43:23.080Z,3.70
2022-10-28T03:45:51.179Z,4.15
2022-10-28T03:48:19.489Z,3.83
2022-10-28T03:50:47.613Z,4.18
2022-10-28T03:53:15.722Z,3.90
2022-10-28T03:55:45.275Z,3.63
2022-10-28T03:58:13.417Z,3.77
2022-10-28T04:00:41.829Z,4.43
2022-10-28T04:03:10.468Z,4.03
2022-10-28T04:05:38.755Z,3.90
2022-10-28T04:08:06.928Z,3.95
2022-10-28T04:10:35.280Z,4.13
2022-10-28T04:13:05.995Z,3.15
2022-10-28T04:15:34.532Z,3.42
2022-10-28T04:18:02.938Z,4.13
2022-10-28T04:20:31.571Z,3.45
2022-10-28T04:23:00.073Z,4.00
2022-10-28T04:25:29.244Z,3.72
2022-10-28T04:27:57.422Z,3.47
2022-10-28T04:30:26.938Z,4.43
2022-10-28T04:32:55.083Z,4.35
2022-10-28T04:35:23.318Z,3.90
2022-10-28T04:37:51.662Z,4.03
2022-10-28T04:40:20.347Z,3.97
2022-10-28T04:42:48.484Z,4.05
2022-10-28T04:45:16.844Z,3.92
2022-10-28T04:47:46.437Z,3.88
2022-10-28T04:50:14.658Z,4.00
2022-10-28T04:52:43.231Z,4.03
2022-10-28T04:55:11.987Z,3.65
2022-10-28T04:57:40.157Z,4.60
2022-10-28T05:00:10.074Z,3.90
2022-10-28T05:02:41.481Z,3.58
2022-10-28T05:05:14.582Z,4.15
2022-10-28T05:07:42.838Z,3.10
2022-10-28T05:10:12.299Z,4.25
2022-10-28T05:12:43.030Z,3.95
2022-10-28T05:15:13.147Z,4.00
2022-10-28T05:17:41.858Z,4.03
2022-10-28T05:20:12.160Z,4.00
2022-10-28T05:22:47.534Z,3.95
2022-10-28T05:25:16.044Z,4.18
2022-10-28T05:27:44.220Z,3.67
2022-10-28T05:30:13.634Z,4.30
2022-10-28T05:32:41.892Z,3.97
2022-10-28T05:35:11.131Z,4.90
2022-10-28T05:37:39.358Z,4.35
2022-10-28T05:40:10.508Z,4.30
2022-10-28T05:42:42.558Z,3.92
2022-10-28T05:45:11.715Z,4.18
2022-10-28T05:47:44.174Z,4.00
2022-10-28T05:50:12.670Z,3.70
2022-10-28T05:52:40.996Z,4.07
2022-10-28T05:55:11.450Z,4.00
2022-10-28T05:57:39.596Z,3.15
2022-10-28T06:00:09.174Z,4.05
2022-10-28T06:02:43.829Z,4.18
2022-10-28T06:05:12.870Z,3.90
2022-10-28T06:07:42.285Z,3.78
2022-10-28T06:10:13.004Z,3.70
2022-10-28T06:12:39.671Z,4.18
2022-10-28T06:15:08.484Z,3.95
2022-10-28T06:17:36.814Z,4.72
2022-10-28T06:20:05.972Z,3.60
2022-10-28T06:22:34.251Z,3.63
2022-10-28T06:25:02.538Z,3.90
2022-10-28T06:27:32.093Z,3.40
2022-10-28T06:30:00.225Z,3.67
2022-10-28T06:32:28.347Z,4.22
2022-10-28T06:34:57.049Z,4.22
2022-10-28T06:37:25.303Z,3.55
2022-10-28T06:39:53.437Z,4.00
2022-10-28T06:42:21.518Z,4.03
2022-10-28T06:44:51.198Z,3.97
2022-10-28T06:47:20.888Z,3.63
2022-10-28T06:49:49.021Z,4.90
2022-10-28T06:52:17.250Z,4.20
2022-10-28T06:54:45.755Z,4.10
2022-10-28T06:57:14.045Z,3.55
2022-10-28T06:59:42.215Z,7.80
2022-10-28T07:02:12.976Z,7.32
2022-10-28T07:04:44.034Z,8.18
2022-10-28T07:07:12.387Z,9.13
2022-10-28T07:09:42.422Z,13.13
2022-10-28T07:12:10.558Z,7.93
2022-10-28T07:14:39.223Z,6.53
2022-10-28T07:17:07.353Z,7.13
2022-10-28T07:19:36.848Z,14.07
2022-10-28T07:22:05.294Z,11.85
2022-10-28T07:24:33.441Z,12.00
2022-10-28T07:27:01.619Z,7.30
2022-10-28T07:29:29.901Z,6.72
2022-10-28T07:31:58.054Z,8.05
2022-10-28T07:34:27.646Z,5.43
2022-10-28T07:36:57.533Z,6.15
2022-10-28T07:39:25.773Z,6.47
2022-10-28T07:41:54.013Z,4.78
2022-10-28T07:44:22.197Z,4.32
2022-10-28T07:46:54.238Z,4.20
2022-10-28T07:49:25.510Z,4.05
2022-10-28T07:51:53.713Z,4.18
2022-10-28T07:54:23.245Z,3.70
2022-10-28T07:56:51.464Z,4.53
2022-10-28T07:59:25.759Z,3.60
2022-10-28T08:01:55.656Z,3.60
2022-10-28T08:04:23.962Z,4.63
2022-10-28T08:06:52.221Z,3.88
2022-10-28T08:09:20.385Z,3.97
2022-10-28T08:11:49.991Z,4.97
2022-10-28T08:14:18.172Z,3.95
2022-10-28T08:16:47.323Z,4.22
2022-10-28T08:19:15.934Z,3.85
2022-10-28T08:21:44.163Z,4.95
2022-10-28T08:24:12.519Z,4.10
2022-10-28T08:26:40.808Z,3.80
2022-10-28T08:29:12.047Z,5.95
2022-10-28T08:31:40.279Z,4.68
2022-10-28T08:34:09.139Z,4.50
2022-10-28T08:36:37.757Z,4.68
2022-10-28T08:39:06.412Z,4.47
2022-10-28T08:41:39.890Z,5.18
2022-10-28T08:44:38.648Z,6.80
2022-10-28T08:47:25.068Z,5.80
2022-10-28T08:49:59.599Z,4.05
2022-10-28T08:52:34.120Z,4.95
2022-10-28T08:55:05.586Z,4.18
2022-10-28T08:57:40.054Z,3.92
2022-10-28T09:00:20.374Z,3.90
2022-10-28T09:03:09.582Z,3.65
2022-10-28T09:05:38.741Z,3.47
2022-10-28T09:08:07.466Z,3.80
2022-10-28T09:10:49.537Z,4.00
2022-10-28T09:13:29.159Z,5.60
2022-10-28T09:16:10.232Z,4.05
2022-10-28T09:18:52.490Z,5.13
2022-10-28T09:21:29.613Z,3.72
2022-10-28T09:23:59.143Z,3.95
2022-10-28T09:26:38.680Z,3.70
2022-10-28T09:29:21.729Z,3.95
2022-10-28T09:31:55.056Z,3.75
2022-10-28T09:34:31.349Z,4.35
2022-10-28T09:37:05.673Z,4.43
2022-10-28T09:39:43.041Z,4.05
2022-10-28T09:42:18.613Z,4.80
2022-10-28T09:44:50.414Z,4.63
2022-10-28T09:47:23.770Z,4.05
2022-10-28T09:49:54.269Z,4.15
2022-10-28T09:52:26.217Z,4.22
2022-10-28T09:54:56.245Z,4.32
2022-10-28T09:57:29.871Z,4.55
2022-10-28T09:59:58.204Z,3.45
2022-10-28T10:02:30.548Z,3.30
2022-10-28T10:05:02.659Z,6.38
2022-10-28T10:07:36.128Z,3.95
2022-10-28T10:10:08.906Z,3.88
2022-10-28T10:12:38.330Z,3.42
2022-10-28T10:15:08.100Z,4.45
2022-10-28T10:17:42.690Z,3.42
2022-10-28T10:20:12.870Z,3.72
2022-10-28T10:22:42.872Z,3.25
2022-10-28T10:25:25.482Z,2.78
2022-10-28T10:27:55.286Z,3.30
2022-10-28T10:30:26.291Z,3.30
2022-10-28T10:32:56.283Z,3.58
2022-10-28T10:35:27.423Z,3.15
2022-10-28T10:37:57.864Z,3.28
2022-10-28T10:40:31.098Z,3.10
2022-10-28T10:43:22.084Z,3.42
2022-10-28T10:45:54.005Z,3.10
2022-10-28T10:48:23.743Z,2.97
2022-10-28T10:50:52.213Z,3.58
2022-10-28T10:53:23.862Z,2.78
2022-10-28T10:55:55.418Z,3.72
2022-10-28T10:58:26.147Z,2.70
2022-10-28T11:00:56.350Z,3.78
2022-10-28T11:03:29.863Z,3.03
2022-10-28T11:06:21.893Z,3.63
2022-10-28T11:08:49.273Z,2.88
2022-10-28T11:11:21.797Z,3.78
2022-10-28T11:14:03.306Z,3.13
2022-10-28T11:16:31.549Z,2.67
2022-10-28T11:19:20.391Z,3.10
2022-10-28T11:21:59.573Z,3.45
2022-10-28T11:24:44.594Z,3.00
2022-10-28T11:27:19.838Z,2.72
2022-10-28T11:29:49.457Z,3.00
2022-10-28T11:32:27.633Z,3.13
2022-10-28T11:35:27.006Z,2.65
2022-10-28T11:38:08.988Z,2.95
2022-10-28T11:40:45.733Z,3.17
2022-10-28T11:43:23.558Z,2.78
2022-10-28T11:46:00.715Z,2.92
2022-10-28T11:48:42.328Z,2.97
2022-10-28T11:51:25.381Z,2.80
2022-10-28T11:54:20.434Z,2.35
2022-10-28T11:56:50.896Z,2.75
2022-10-28T11:59:35.650Z,2.92
2022-10-28T12:02:20.772Z,2.80
2022-10-28T12:04:58.327Z,2.90
2022-10-28T12:07:54.292Z,2.90
2022-10-28T12:10:39.674Z,3.00
2022-10-28T12:13:14.448Z,2.75
2022-10-28T12:15:51.565Z,2.60
2022-10-28T12:18:24.198Z,2.83
2022-10-28T12:20:59.186Z,2.50
2022-10-28T12:23:31.504Z,3.33
2022-10-28T12:26:01.688Z,3.05
2022-10-28T12:28:34.713Z,3.33
2022-10-28T12:31:04.932Z,2.70
2022-10-28T12:33:39.202Z,2.85
2022-10-28T12:36:24.185Z,3.25
2022-10-28T12:39:01.904Z,2.70
2022-10-28T12:41:44.898Z,2.80
2022-10-28T12:44:16.139Z,2.72
2022-10-28T12:46:53.205Z,2.80
2022-10-28T12:49:32.288Z,3.20
2022-10-28T12:52:06.685Z,3.63
2022-10-28T12:54:53.546Z,3.72
2022-10-28T12:57:24.400Z,3.42
2022-10-28T12:59:55.995Z,2.65
2022-10-28T13:02:30.007Z,3.10
2022-10-28T13:04:59.167Z,2.90
2022-10-28T13:07:58.656Z,3.40
2022-10-28T13:10:33.963Z,3.03
2022-10-28T13:13:13.545Z,3.40
2022-10-28T13:16:06.468Z,2.47
2022-10-28T13:19:01.664Z,2.83
2022-10-28T13:21:41.296Z,2.55
2022-10-28T13:24:18.597Z,3.00
2022-10-28T13:26:49.301Z,3.30
2022-10-28T13:29:24.467Z,3.13
2022-10-28T13:31:54.377Z,3.75
2022-10-28T13:34:31.596Z,3.38
2022-10-28T13:37:03.404Z,3.05
2022-10-28T13:39:44.679Z,2.88
2022-10-28T13:42:48.653Z,3.30
2022-10-28T13:45:49.050Z,2.88
2022-10-28T13:48:49.280Z,2.97
2022-10-28T13:51:46.535Z,3.17
2022-10-28T13:54:31.868Z,3.17
2022-10-28T13:57:10.162Z,3.13
2022-10-28T13:59:56.772Z,2.42
2022-10-28T14:02:35.156Z,3.10
2022-10-28T14:05:07.268Z,3.28
2022-10-28T14:07:37.478Z,3.13
2022-10-28T14:10:22.088Z,3.72
2022-10-28T14:12:54.788Z,2.42
2022-10-28T14:15:28.139Z,3.17
2022-10-28T14:18:15.898Z,3.10
2022-10-28T14:20:59.120Z,2.55
2022-10-28T14:24:08.428Z,3.17
2022-10-28T14:27:29.003Z,3.17
2022-10-28T14:30:21.600Z,3.00
2022-10-28T14:33:12.533Z,3.50
2022-10-28T14:35:43.895Z,2.92
2022-10-28T14:38:52.694Z,3.40
2022-10-28T14:41:38.325Z,3.08
2022-10-28T14:44:18.944Z,3.15
2022-10-28T14:46:56.998Z,3.08
2022-10-28T14:49:28.563Z,3.17
2022-10-28T14:51:59.203Z,2.70
2022-10-28T14:54:39.598Z,3.17
2022-10-28T14:57:09.801Z,3.15
2022-10-28T14:59:41.314Z,3.25
2022-10-28T15:02:17.245Z,3.30
2022-10-28T15:04:49.547Z,3.28
2022-10-28T15:07:20.501Z,4.13
2022-10-28T15:09:53.579Z,3.67
2022-10-28T15:12:26.056Z,3.40
2022-10-28T15:14:56.173Z,3.40
2022-10-28T15:17:26.149Z,2.97
2022-10-28T15:19:57.099Z,3.45
2022-10-28T15:22:28.234Z,2.67
2022-10-28T15:25:00.650Z,3.85
2022-10-28T15:27:30.871Z,3.13
2022-10-28T15:29:59.529Z,3.33
2022-10-28T15:32:30.886Z,4.30
2022-10-28T15:35:00.697Z,3.33
2022-10-28T15:37:31.183Z,3.42
2022-10-28T15:40:14.523Z,3.85
2022-10-28T15:42:45.909Z,3.53
2022-10-28T15:45:20.005Z,3.10
2022-10-28T15:47:49.830Z,3.63
2022-10-28T15:50:33.839Z,3.92
2022-10-28T15:53:39.255Z,4.07
2022-10-28T15:56:23.364Z,3.08
2022-10-28T15:59:04.820Z,4.07
2022-10-28T16:01:41.672Z,3.75
2022-10-28T16:04:42.342Z,3.33
2022-10-28T16:07:12.303Z,3.25
2022-10-28T16:09:46.593Z,4.15
2022-10-28T16:12:16.897Z,4.65
2022-10-28T16:14:47.021Z,3.97
2022-10-28T16:17:18.108Z,3.65
2022-10-28T16:19:52.432Z,3.90
2022-10-28T16:22:23.277Z,3.83
2022-10-28T16:24:53.408Z,3.70
2022-10-28T16:27:23.932Z,3.75
2022-10-28T16:29:52.924Z,3.63
2022-10-28T16:32:26.317Z,4.18
2022-10-28T16:34:54.542Z,4.03
2022-10-28T16:37:27.007Z,4.40
2022-10-28T16:39:56.118Z,4.10
2022-10-28T16:42:24.996Z,3.90
2022-10-28T16:44:53.491Z,4.07
2022-10-28T16:47:24.297Z,3.80
2022-10-28T16:49:56.260Z,3.85
2022-10-28T16:52:29.820Z,4.00
2022-10-28T16:54:58.658Z,3.78
2022-10-28T16:57:27.193Z,3.65
2022-10-28T16:59:56.000Z,4.70
2022-10-28T17:02:27.804Z,3.78
2022-10-28T17:04:56.676Z,3.95
2022-10-28T17:07:24.972Z,4.18
2022-10-28T17:09:54.537Z,3.45
2022-10-28T17:12:24.749Z,4.30
2022-10-28T17:14:53.550Z,3.80
2022-10-28T17:17:21.784Z,4.30
2022-10-28T17:19:49.903Z,5.22
2022-10-28T17:22:18.093Z,5.85
2022-10-28T17:24:46.360Z,7.03
2022-10-28T17:27:16.030Z,6.18
2022-10-28T17:29:44.221Z,6.35
2022-10-28T17:32:12.651Z,6.03
2022-10-28T17:34:40.814Z,4.75
2022-10-28T17:37:09.015Z,5.38
2022-10-28T17:39:37.917Z,5.18
2022-10-28T17:42:08.710Z,4.40
2022-10-28T17:44:38.417Z,4.35
2022-10-28T17:47:06.633Z,4.00
2022-10-28T17:49:37.563Z,4.22
2022-10-28T17:52:05.773Z,3.92
2022-10-28T17:54:33.990Z,4.00
2022-10-28T17:57:03.338Z,3.97
2022-10-28T17:59:31.576Z,3.70
2022-10-28T18:02:02.220Z,4.15
2022-10-28T18:04:30.883Z,6.68
2022-10-28T18:06:59.380Z,6.75
2022-10-28T18:09:31.708Z,6.32
2022-10-28T18:12:01.986Z,4.63
2022-10-28T18:14:30.872Z,4.45
2022-10-28T18:16:59.093Z,4.55
2022-10-28T18:19:28.735Z,4.40
2022-10-28T18:21:57.018Z,4.75
2022-10-28T18:24:26.176Z,4.70
2022-10-28T18:26:56.938Z,5.03
2022-10-28T18:29:25.722Z,6.80
2022-10-28T18:31:53.880Z,6.55
2022-10-28T18:34:23.755Z,5.30
2022-10-28T18:36:53.478Z,5.68
2022-10-28T18:39:22.554Z,5.28
2022-10-28T18:41:51.572Z,5.60
2022-10-28T18:44:21.652Z,5.28
2022-10-28T18:46:51.288Z,5.15
2022-10-28T18:49:19.756Z,5.07
2022-10-28T18:51:47.858Z,6.07
2022-10-28T18:54:17.385Z,5.03
2022-10-28T18:56:47.884Z,5.30
2022-10-28T18:59:16.925Z,4.80
2022-10-28T19:01:46.985Z,5.20
2022-10-28T19:04:15.660Z,4.60
2022-10-28T19:06:43.806Z,5.00
2022-10-28T19:09:12.218Z,5.07
2022-10-28T19:11:41.849Z,5.43
2022-10-28T19:14:10.943Z,6.03
2022-10-28T19:16:39.151Z,6.00
2022-10-28T19:19:07.356Z,5.72
2022-10-28T19:21:35.727Z,5.03
2022-10-28T19:24:05.322Z,5.65
2022-10-28T19:26:34.933Z,4.97
2022-10-28T19:29:05.871Z,5.30
2022-10-28T19:31:36.901Z,5.57
2022-10-28T19:34:05.631Z,5.50
2022-10-28T19:36:33.855Z,5.15
2022-10-28T19:39:03.782Z,4.67
2022-10-28T19:41:32.196Z,5.20
2022-10-28T19:44:01.995Z,5.32
2022-10-28T19:46:33.652Z,4.97
2022-10-28T19:49:04.490Z,4.55
2022-10-28T19:51:34.793Z,4.82
2022-10-28T19:54:04.873Z,4.10
2022-10-28T19:56:34.820Z,4.95
2022-10-28T19:59:04.556Z,4.93
2022-10-28T20:01:36.558Z,5.30
2022-10-28T20:04:05.600Z,4.30
2022-10-28T20:06:38.010Z,5.47
2022-10-28T20:09:06.914Z,5.57
2022-10-28T20:11:37.460Z,5.20
2022-10-28T20:14:08.599Z,5.00
2022-10-28T20:16:39.550Z,5.60
2022-10-28T20:19:07.700Z,5.47
2022-10-28T20:21:37.256Z,5.47
2022-10-28T20:24:06.800Z,5.50
2022-10-28T20:26:37.494Z,6.50
2022-10-28T20:29:06.853Z,5.72
2022-10-28T20:31:35.383Z,5.60
2022-10-28T20:34:05.642Z,5.32
2022-10-28T20:36:35.334Z,5.18
2022-10-28T20:39:06.749Z,5.47
2022-10-28T20:41:36.245Z,4.53
2022-10-28T20:44:05.155Z,5.72
2022-10-28T20:46:33.974Z,5.88
2022-10-28T20:49:04.286Z,5.63
2022-10-28T20:51:33.863Z,6.15
2022-10-28T20:54:02.129Z,6.00
2022-10-28T20:56:31.890Z,6.00
2022-10-28T20:59:00.636Z,5.68
2022-10-28T21:01:30.904Z,5.35
2022-10-28T21:04:01.616Z,5.57
2022-10-28T21:06:31.899Z,5.60
2022-10-28T21:09:00.339Z,6.00
2022-10-28T21:11:32.923Z,5.57
2022-10-28T21:14:02.571Z,5.63
2022-10-28T21:16:31.147Z,5.15
2022-10-28T21:19:00.198Z,5.60
2022-10-28T21:21:29.550Z,5.17
2022-10-28T21:23:59.383Z,5.20
2022-10-28T21:26:27.775Z,5.15
2022-10-28T21:28:56.435Z,4.97
2022-10-28T21:31:25.048Z,5.32
2022-10-28T21:33:53.666Z,5.30
2022-10-28T21:36:23.043Z,4.93
2022-10-28T21:38:56.278Z,5.45
2022-10-28T21:41:26.097Z,5.15
2022-10-28T21:43:55.711Z,5.20
2022-10-28T21:46:24.596Z,5.63
2022-10-28T21:48:53.697Z,6.40
2022-10-28T21:51:22.470Z,6.03
2022-10-28T21:54:19.757Z,5.07
2022-10-28T21:56:50.600Z,5.68
2022-10-28T21:59:18.818Z,5.30
2022-10-28T22:01:52.204Z,5.75
2022-10-28T22:04:34.409Z,6.13
2022-10-28T22:07:02.664Z,5.30
2022-10-28T22:09:34.864Z,5.88
2022-10-28T22:12:08.055Z,5.72
2022-10-28T22:14:40.184Z,5.68
2022-10-28T22:17:11.890Z,6.25
2022-10-28T22:19:41.774Z,6.00
2022-10-28T22:22:10.032Z,5.95
2022-10-28T22:24:38.602Z,5.80
2022-10-28T22:27:11.100Z,6.43
2022-10-28T22:29:42.534Z,7.03
2022-10-28T22:32:10.860Z,6.30
2022-10-28T22:34:41.542Z,6.25
2022-10-28T22:37:10.611Z,6.45
2022-10-28T22:39:42.119Z,5.93
2022-10-28T22:42:13.730Z,6.70
2022-10-28T22:44:42.302Z,6.40
2022-10-28T22:47:11.423Z,6.32
2022-10-28T22:49:52.957Z,5.72
2022-10-28T22:52:24.261Z,6.90
2022-10-28T22:54:58.318Z,5.90
2022-10-28T22:57:27.898Z,6.85
2022-10-28T22:59:56.381Z,6.97
2022-10-28T23:02:39.156Z,7.45
2022-10-28T23:05:09.009Z,7.03
2022-10-28T23:07:37.282Z,7.63
2022-10-28T23:10:06.292Z,7.18
2022-10-28T23:12:35.835Z,6.43
2022-10-28T23:15:04.215Z,6.17
2022-10-28T23:17:32.484Z,6.40
2022-10-28T23:20:00.789Z,6.45
2022-10-28T23:22:30.166Z,6.53
2022-10-28T23:24:58.359Z,6.70
2022-10-28T23:27:26.674Z,6.55
2022-10-28T23:29:56.206Z,7.32
2022-10-28T23:32:25.413Z,7.03
2022-10-28T23:34:53.641Z,5.63
2022-10-28T23:37:21.806Z,5.95
2022-10-28T23:39:50.297Z,6.60
2022-10-28T23:42:18.481Z,5.95
2022-10-28T23:44:46.685Z,5.80
2022-10-28T23:47:16.727Z,6.28
2022-10-28T23:49:44.886Z,6.03
2022-10-28T23:52:13.300Z,6.60
2022-10-28T23:54:42.582Z,6.60
2022-10-28T23:57:10.776Z,5.97
2022-10-28T23:59:38.930Z,5.90
